createdAt,value
2022-08-31T00:03:40.536Z,2.67
2022-08-31T00:08:35.292Z,2.35
2022-08-31T00:13:29.963Z,2.55
2022-08-31T00:23:29.384Z,2.60
2022-08-31T00:28:24.635Z,2.45
2022-08-31T00:38:24.891Z,2.55
2022-08-31T00:43:47.805Z,2.70
2022-08-31T00:48:57.612Z,2.72
2022-08-31T00:53:50.930Z,2.40
2022-08-31T01:09:03.319Z,2.63
2022-08-31T01:34:33.690Z,2.50
2022-08-31T01:54:44.208Z,2.83
2022-08-31T01:59:36.179Z,3.03
2022-08-31T02:04:29.182Z,3.10
2022-08-31T02:09:22.616Z,3.22
2022-08-31T02:19:22.017Z,3.15
2022-08-31T02:44:38.148Z,3.35
2022-08-31T02:54:40.512Z,3.50
2022-08-31T02:59:32.220Z,3.20
2022-08-31T03:04:24.141Z,2.90
2022-08-31T03:09:16.463Z,3.53
2022-08-31T03:14:08.205Z,3.20
2022-08-31T03:18:59.944Z,3.42
2022-08-31T03:23:51.712Z,3.00
2022-08-31T03:33:50.471Z,3.72
2022-08-31T03:38:42.864Z,3.47
2022-08-31T03:43:37.649Z,3.47
2022-08-31T03:48:29.364Z,3.03
2022-08-31T03:58:30.913Z,3.15
2022-08-31T04:03:24.768Z,2.95
2022-08-31T04:08:23.391Z,3.60
2022-08-31T04:18:21.848Z,3.67
2022-08-31T04:23:23.195Z,4.13
2022-08-31T04:28:15.594Z,4.47
2022-08-31T04:33:08.883Z,4.57
2022-08-31T04:38:01.066Z,4.75
2022-08-31T04:42:54.107Z,4.50
2022-08-31T04:47:46.717Z,4.40
2022-08-31T04:52:39.924Z,4.68
2022-08-31T04:57:39.218Z,5.25
2022-08-31T05:12:45.043Z,4.38
2022-08-31T05:22:46.630Z,4.40
2022-08-31T05:27:40.889Z,4.70
2022-08-31T05:32:34.116Z,4.13
2022-08-31T05:37:26.959Z,4.60
2022-08-31T05:42:20.400Z,4.72
2022-08-31T05:47:13.071Z,4.63
2022-08-31T05:52:08.705Z,4.53
2022-08-31T05:57:04.573Z,4.15
2022-08-31T06:01:58.531Z,3.65
2022-08-31T06:17:09.787Z,4.35
2022-08-31T06:22:03.057Z,3.97
2022-08-31T06:26:59.904Z,4.22
2022-08-31T06:31:52.239Z,3.67
2022-08-31T07:07:28.681Z,2.92
2022-08-31T07:12:22.305Z,3.38
2022-08-31T07:17:14.413Z,2.60
2022-08-31T07:22:11.422Z,3.00
2022-08-31T07:27:14.503Z,2.85
2022-08-31T07:32:12.725Z,3.20
2022-08-31T07:37:27.211Z,3.05
2022-08-31T07:42:25.307Z,3.30
2022-08-31T07:47:19.948Z,2.97
2022-08-31T07:52:21.886Z,3.35
2022-08-31T07:57:14.275Z,4.05
2022-08-31T08:02:07.375Z,3.50
2022-08-31T08:07:00.709Z,3.78
2022-08-31T08:12:01.265Z,4.28
2022-08-31T08:16:55.588Z,3.65
2022-08-31T08:21:48.340Z,4.05
2022-08-31T08:26:54.100Z,4.13
2022-08-31T14:02:37.075Z,4.60
2022-08-31T14:07:45.740Z,5.57
2022-08-31T14:12:54.724Z,4.70
2022-08-31T14:23:29.461Z,4.85
2022-08-31T14:28:36.162Z,5.18
2022-08-31T14:33:27.938Z,4.53
2022-08-31T14:38:19.855Z,5.78
2022-08-31T14:43:17.422Z,4.93
2022-08-31T14:48:10.862Z,4.60
2022-08-31T14:53:02.679Z,5.32
2022-08-31T14:58:05.031Z,5.07
2022-08-31T15:02:56.953Z,4.88
2022-08-31T15:07:51.033Z,5.10
2022-08-31T15:12:42.873Z,5.63
2022-08-31T15:17:35.938Z,4.70
2022-08-31T15:22:27.946Z,5.80
2022-08-31T15:27:23.316Z,6.25
2022-08-31T15:32:16.803Z,5.85
2022-08-31T15:37:09.367Z,5.70
2022-08-31T15:42:08.928Z,6.68
2022-08-31T15:47:19.236Z,6.55
2022-08-31T15:52:12.016Z,6.55
2022-08-31T15:57:05.998Z,6.68
2022-08-31T16:01:58.877Z,5.78
2022-08-31T16:06:52.529Z,5.97
2022-08-31T16:11:44.418Z,5.30
2022-08-31T16:16:40.995Z,5.55
2022-08-31T16:21:37.560Z,6.00
2022-08-31T17:07:56.486Z,4.75
2022-08-31T17:28:15.446Z,5.30
2022-08-31T19:11:51.414Z,5.18
2022-08-31T20:08:19.468Z,4.90
2022-08-31T22:01:09.203Z,5.57
2022-08-31T22:32:01.015Z,5.35
2022-08-31T22:42:04.066Z,6.30
2022-08-31T23:02:18.485Z,6.00
2022-08-31T23:12:18.317Z,5.32
2022-08-31T23:17:10.481Z,6.15
2022-08-31T23:22:07.465Z,6.20
2022-08-31T23:32:20.297Z,6.68
2022-08-31T23:47:31.208Z,7.47
2022-08-31T23:52:26.992Z,7.40
